Onde está Aldeia, Lisboa en Portugal?

 

Aldeia está situado na região Lisboa em Portugal!

Buscar o nome de uma cidade:

Aldeno, Aldeia da Mata Pequena - Turísmo Rural, Aldehuela del Rincón, Aldeia Chioco, Aldeia dos São Guerra

Aqui você vai encontrar a localização de Aldeia em um mapa.
Para ver como ele atualmente parece, abaixo estão algumas fotos da região, com webcams online.
Você também pode encontrar a distância para as principais cidades da região e de cidades do resto do Portugal.

10 lugares nomeadas Aldeia na Portugal.

Cidades do mundo
Cidades em Portugal que também são encontradas em outros países do mundo.


Onde está Aldeia no mapa?




Webcams perto Aldeia

Benavente › North-East: Santarém - AIrport, METAR: BENAV 180005Z 36004KT 17/14 Q1015.


Benavente › North-East: Santarém - AIrport, METAR: BENAV 180005Z 36004KT 17/14 Q1015 - Dia
Actual
Benavente › North-East: Santarém - AIrport, METAR: BENAV 180005Z 36004KT 17/14 Q1015 - Actual

Nossa Senhora do Populo, Coto e Sao Gregorio: Caldas da Rainha.


Nossa Senhora do Populo, Coto e Sao Gregorio: Caldas da Rainha - Dia
Actual
Nossa Senhora do Populo, Coto e Sao Gregorio: Caldas da Rainha - Actual

Silveira › West.


Silveira › West - Dia
Actual
Silveira › West - Actual

Webcams provided by windy.comadd a webcam


Distâncias

Onde está Aldeia em relação a outros lugares?

Top 10 cidades em Lisboa e distância de Aldeia.

Cidade#Populaçãokmmilhas
Lisbon15177984528
Amadora21788564528
Queluz31033984729
Loures4662303522
Rio de Mouro5546954830
Odivelas6546234025
São Domingos de Rana7467175534
Cascais8364366037
Alcabideche9333155635
Póvoa de Santa Iria10289002918

Top 10 cidades em Portugal e distância de Aldeia.

Cidade # Populaçãokmmilhas
Lisbon15177984528
Porto2249630229142
Amadora31788564528
Braga4121393275171
Setúbal51171096440
Coimbra610658013081
Queluz71033984729
Funchal8980411014630
Vila Nova de Gaia970810227141
Loures10662303522


Info

Estatística e Geografia

Portugal é composta de 15299 cidades em 20 regiões.

A região de Lisboa tem 1032 cidades.

Aldeia é o número 111 na região Lisboa.

A cidade é o número 834 na Portugal.

Onde está Aldeia, Lisboa en Portugal?